Time;durP1;ratioP1;P1;durP2;ratioP2;P2;SDS_P1;SDS_P2;PMS_P1;PMS_P2;Temp;Humidity;BMP_temperature;BMP_pressure;BME280_temperature;BME280_humidity;BME280_pressure;Samples;Min_cycle;Max_cycle;Signal;HPM_P1;HPM_P2
2022/09/12 00:01:38;;;;;;;;;;;;;;;14.20;100.00;101740.31;5052475;28;20290;-71
2022/09/12 00:04:04;;;;;;;;;;;;;;;14.18;100.00;101734.22;5040112;28;19936;-71
2022/09/12 00:06:30;;;;;;;;;;;;;;;14.16;100.00;101733.41;5052228;28;19935;-71
2022/09/12 00:08:58;;;;;;;;;;;;;;;14.15;100.00;101728.16;5050246;28;20367;-71
2022/09/12 00:11:23;;;;;;;;;;;;;;;14.14;100.00;101724.63;5051742;28;19928;-71
2022/09/12 00:13:49;;;;;;;;;;;;;;;14.11;100.00;101725.63;5052243;28;19951;-71
2022/09/12 00:16:15;;;;;;;;;;;;;;;14.11;100.00;101730.97;5051662;28;19956;-71
2022/09/12 00:18:41;;;;;;;;;;;;;;;14.09;100.00;101731.97;5035006;28;19925;-70
2022/09/12 00:21:06;;;;;;;;;;;;;;;14.07;100.00;101724.06;5051994;28;19925;-70
2022/09/12 00:23:32;;;;;;;;;;;;;;;14.05;100.00;101714.41;5052114;28;19929;-71
2022/09/12 00:26:02;;;;;;;;;;;;;;;14.04;100.00;101717.97;5051038;28;20394;-71
2022/09/12 00:28:28;;;;;;;;;;;;;;;14.02;100.00;101714.53;5040666;28;20367;-71
2022/09/12 00:30:53;;;;;;;;;;;;;;;13.98;100.00;101704.06;5048522;28;20015;-70
2022/09/12 00:33:19;;;;;;;;;;;;;;;13.98;100.00;101714.69;5051975;28;20011;-71
2022/09/12 00:35:45;;;;;;;;;;;;;;;13.95;100.00;101706.84;5051108;28;20454;-71
2022/09/12 00:38:13;;;;;;;;;;;;;;;13.93;100.00;101700.72;5050127;28;19924;-73
2022/09/12 00:40:39;;;;;;;;;;;;;;;13.91;100.00;101702.59;5051650;28;19967;-70
2022/09/12 00:43:05;;;;;;;;;;;;;;;13.89;100.00;101700.94;5051563;28;20027;-72
2022/09/12 00:45:30;;;;;;;;;;;;;;;13.85;100.00;101697.56;5050169;28;19942;-71
2022/09/12 00:47:57;;;;;;;;;;;;;;;13.83;100.00;101694.97;5050525;28;19929;-71
2022/09/12 00:50:23;;;;;;;;;;;;;;;13.84;100.00;101690.50;5050425;28;19970;-71
2022/09/12 00:52:49;;;;;;;;;;;;;;;13.82;100.00;101687.03;5033721;28;20094;-71
2022/09/12 00:55:26;;;;;;;;;;;;;;;13.80;100.00;101688.91;5050255;28;19931;-70
2022/09/12 00:57:51;;;;;;;;;;;;;;;13.77;100.00;101687.25;5050551;28;19929;-71
2022/09/12 01:00:18;;;;;;;;;;;;;;;13.74;100.00;101678.56;5051935;28;19939;-71
2022/09/12 01:03:03;;;;;;;;;;;;;;;13.71;100.00;101680.44;5049467;28;20174;-71
2022/09/12 01:05:29;;;;;;;;;;;;;;;13.68;100.00;101675.22;5038964;28;20404;-71
2022/09/12 01:07:55;;;;;;;;;;;;;;;13.67;100.00;101672.66;5048239;28;19943;-71
2022/09/12 01:10:20;;;;;;;;;;;;;;;13.64;100.00;101667.47;5032917;28;19929;-71
2022/09/12 01:12:45;;;;;;;;;;;;;;;13.63;100.00;101666.63;5051529;28;20682;-71
2022/09/12 01:15:11;;;;;;;;;;;;;;;13.61;100.00;101668.47;5049540;28;19921;-71
2022/09/12 01:17:55;;;;;;;;;;;;;;;13.61;100.00;101672.94;5051567;28;19951;-71
2022/09/12 01:20:33;;;;;;;;;;;;;;;13.58;100.00;101673.94;5052991;28;19968;-70
2022/09/12 01:23:04;;;;;;;;;;;;;;;13.56;100.00;101670.44;5045684;28;19924;-71
2022/09/12 01:25:33;;;;;;;;;;;;;;;13.52;100.00;101663.56;5041325;28;19925;-71
2022/09/12 01:28:17;;;;;;;;;;;;;;;13.48;100.00;101667.28;5052557;28;20035;-70
2022/09/12 01:30:46;;;;;;;;;;;;;;;13.46;100.00;101672.69;5052005;28;19920;-71
2022/09/12 01:33:12;;;;;;;;;;;;;;;13.43;100.00;101670.13;5051787;28;19981;-72
2022/09/12 01:35:42;;;;;;;;;;;;;;;13.41;100.00;101664.84;5052199;28;19987;-71
2022/09/12 01:38:09;;;;;;;;;;;;;;;13.39;100.00;101671.16;5052148;28;19925;-71
2022/09/12 01:40:53;;;;;;;;;;;;;;;13.38;100.00;101658.81;5035747;28;19928;-72
2022/09/12 01:43:19;;;;;;;;;;;;;;;13.35;100.00;101662.47;5051776;28;19935;-71
2022/09/12 01:45:45;;;;;;;;;;;;;;;13.35;100.00;101662.47;5052317;28;19933;-71
2022/09/12 01:48:23;;;;;;;;;;;;;;;13.36;100.00;101655.38;5055593;28;20395;-71
2022/09/12 01:51:02;;;;;;;;;;;;;;;13.36;100.00;101650.94;5053911;28;20050;-72
2022/09/12 01:53:28;;;;;;;;;;;;;;;13.36;100.00;101650.03;5053723;28;20015;-70
2022/09/12 01:56:01;;;;;;;;;;;;;;;13.35;100.00;101646.50;5054683;28;19931;-71
2022/09/12 01:58:28;;;;;;;;;;;;;;;13.34;100.00;101636.81;5048457;28;19928;-70
2022/09/12 02:01:19;;;;;;;;;;;;;;;13.35;100.00;101635.88;5039951;28;20419;-71
2022/09/12 02:03:49;;;;;;;;;;;;;;;13.35;100.00;101632.38;5053210;28;21406;-71
2022/09/12 02:06:19;;;;;;;;;;;;;;;13.34;100.00;101626.16;5049558;28;20023;-71
2022/09/12 02:08:49;;;;;;;;;;;;;;;13.34;100.00;101628.84;5054567;28;19927;-70
2022/09/12 02:11:15;;;;;;;;;;;;;;;13.34;100.00;101628.00;5054471;28;20359;-70
2022/09/12 02:13:41;;;;;;;;;;;;;;;13.33;100.00;101627.09;5054282;28;19924;-69
2022/09/12 02:16:12;;;;;;;;;;;;;;;13.32;100.00;101625.38;5051478;28;19952;-71
2022/09/12 02:18:44;;;;;;;;;;;;;;;13.29;100.00;101618.41;5020773;28;19973;-71
2022/09/12 02:21:09;;;;;;;;;;;;;;;13.27;100.00;101617.63;5053088;28;19925;-72
2022/09/12 02:23:36;;;;;;;;;;;;;;;13.27;100.00;101617.63;5053231;28;21322;-72
2022/09/12 02:26:07;;;;;;;;;;;;;;;13.25;100.00;101618.63;5054532;28;19928;-72
2022/09/12 02:28:34;;;;;;;;;;;;;;;13.25;100.00;101619.47;5054198;28;19954;-71
2022/09/12 02:31:32;;;;;;;;;;;;;;;13.25;100.00;101618.63;5054088;28;20379;-72
2022/09/12 02:34:12;;;;;;;;;;;;;;;13.22;100.00;101626.72;5033583;28;19932;-72
2022/09/12 02:36:56;;;;;;;;;;;;;;;13.20;100.00;101623.25;5054871;28;19997;-72
2022/09/12 02:39:21;;;;;;;;;;;;;;;13.18;100.00;101618.00;5053683;28;19943;-72
2022/09/12 02:41:50;;;;;;;;;;;;;;;13.18;100.00;101618.00;5053379;28;20418;-72
2022/09/12 02:44:15;;;;;;;;;;;;;;;13.18;100.00;101621.53;5052796;28;19935;-72
2022/09/12 02:46:41;;;;;;;;;;;;;;;13.18;100.00;101621.53;5053596;28;19928;-72
2022/09/12 02:49:07;;;;;;;;;;;;;;;13.18;100.00;101620.66;5052312;28;20399;-72
2022/09/12 02:51:32;;;;;;;;;;;;;;;13.16;100.00;101612.78;5053695;28;19924;-70
2022/09/12 02:53:58;;;;;;;;;;;;;;;13.17;100.00;101611.84;5054162;28;20358;-71
2022/09/12 02:56:27;;;;;;;;;;;;;;;13.16;100.00;101604.81;5047659;28;20593;-71
2022/09/12 02:58:53;;;;;;;;;;;;;;;13.14;100.00;101611.97;5028581;28;19925;-71
2022/09/12 03:01:27;;;;;;;;;;;;;;;13.14;100.00;101611.13;5051356;28;19970;-71
2022/09/12 03:04:04;;;;;;;;;;;;;;;13.12;100.00;101607.66;5050169;28;20394;-70
2022/09/12 03:06:49;;;;;;;;;;;;;;;13.09;100.00;101607.78;5051320;28;19931;-71
2022/09/12 03:09:53;;;;;;;;;;;;;;;13.06;100.00;101608.78;5050307;28;20341;-71
2022/09/12 03:12:23;;;;;;;;;;;;;;;13.05;100.00;101604.41;5034014;28;19920;-71
2022/09/12 03:14:54;;;;;;;;;;;;;;;13.02;100.00;101602.75;5035609;28;19935;-72
2022/09/12 03:17:23;;;;;;;;;;;;;;;12.99;100.00;101594.91;5043956;28;19924;-71
2022/09/12 03:20:00;;;;;;;;;;;;;;;12.97;100.00;101596.75;5051906;28;19936;-71
2022/09/12 03:22:28;;;;;;;;;;;;;;;12.94;100.00;101596.91;5052914;28;19928;-72
2022/09/12 03:25:05;;;;;;;;;;;;;;;12.94;100.00;101588.06;5052739;28;19925;-71
2022/09/12 03:27:32;;;;;;;;;;;;;;;12.93;100.00;101591.66;5051670;28;20476;-72
2022/09/12 03:29:57;;;;;;;;;;;;;;;12.90;100.00;101582.88;5039733;28;19929;-72
2022/09/12 03:32:39;;;;;;;;;;;;;;;12.89;100.00;101585.59;5041032;28;19929;-72
2022/09/12 03:35:05;;;;;;;;;;;;;;;12.88;100.00;101586.53;5058267;28;19932;-72
2022/09/12 03:37:30;;;;;;;;;;;;;;;12.86;100.00;101585.75;5051029;28;19925;-71
2022/09/12 03:39:55;;;;;;;;;;;;;;;12.84;100.00;101583.16;5046622;28;19932;-72
2022/09/12 03:42:20;;;;;;;;;;;;;;;12.82;100.00;101587.69;5055338;28;19964;-72
2022/09/12 03:44:46;;;;;;;;;;;;;;;12.80;100.00;101584.19;5036130;28;19925;-71
2022/09/12 03:47:11;;;;;;;;;;;;;;;12.78;100.00;101578.09;5051589;28;19925;-72
2022/09/12 03:49:36;;;;;;;;;;;;;;;12.77;100.00;101581.69;5052374;28;19932;-72
2022/09/12 03:52:03;;;;;;;;;;;;;;;12.78;100.00;101575.44;5042003;28;19920;-72
2022/09/12 03:54:28;;;;;;;;;;;;;;;12.77;100.00;101573.72;5052521;28;19924;-71
2022/09/12 03:56:53;;;;;;;;;;;;;;;12.77;100.00;101582.53;5053762;28;20401;-71
2022/09/12 03:59:19;;;;;;;;;;;;;;;12.77;100.00;101571.91;5053813;28;19920;-71
2022/09/12 04:01:44;;;;;;;;;;;;;;;12.76;100.00;101575.50;5052720;28;19956;-71
2022/09/12 04:04:10;;;;;;;;;;;;;;;12.79;100.00;101573.66;5053373;28;19928;-70
2022/09/12 04:06:38;;;;;;;;;;;;;;;12.78;100.00;101572.78;5052587;28;19924;-73
2022/09/12 04:09:03;;;;;;;;;;;;;;;12.80;100.00;101570.06;5067159;28;20034;-71
2022/09/12 04:11:28;;;;;;;;;;;;;;;12.79;100.00;101563.88;5050584;28;20443;-71
2022/09/12 04:13:54;;;;;;;;;;;;;;;12.82;100.00;101563.75;5053089;28;19975;-71
2022/09/12 04:16:19;;;;;;;;;;;;;;;12.83;100.00;101564.59;5050474;28;19932;-70
2022/09/12 04:18:45;;;;;;;;;;;;;;;12.85;100.00;101560.97;5048305;28;19982;-71
2022/09/12 04:21:11;;;;;;;;;;;;;;;12.88;100.00;101567.94;5034747;28;20438;-72
2022/09/12 04:23:36;;;;;;;;;;;;;;;12.91;100.00;101565.13;5052330;28;20679;-71
2022/09/12 04:26:02;;;;;;;;;;;;;;;12.93;100.00;101565.06;5050081;28;19998;-71
2022/09/12 04:28:28;;;;;;;;;;;;;;;12.96;100.00;101570.28;5051595;28;19964;-71
2022/09/12 04:30:53;;;;;;;;;;;;;;;12.96;100.00;101564.94;5051359;28;19928;-70
2022/09/12 04:33:19;;;;;;;;;;;;;;;12.97;100.00;101567.53;5051341;28;19924;-70
2022/09/12 04:35:44;;;;;;;;;;;;;;;12.98;100.00;101571.06;5050225;28;19928;-71
2022/09/12 04:38:10;;;;;;;;;;;;;;;12.99;100.00;101565.69;5050924;28;20354;-71
2022/09/12 04:40:37;;;;;;;;;;;;;;;13.00;100.00;101566.53;5045391;28;20300;-71
2022/09/12 04:43:02;;;;;;;;;;;;;;;13.00;100.00;101555.91;5052420;28;19932;-71
2022/09/12 04:45:28;;;;;;;;;;;;;;;13.03;100.00;101574.38;5049046;28;20295;-71
2022/09/12 04:47:53;;;;;;;;;;;;;;;13.04;100.00;101574.28;5050693;28;19978;-71
2022/09/12 04:50:18;;;;;;;;;;;;;;;13.06;100.00;101571.56;5052171;28;19929;-71
2022/09/12 04:52:53;;;;;;;;;;;;;;;13.07;100.00;101565.31;5051991;28;20279;-70
2022/09/12 04:55:19;;;;;;;;;;;;;;;13.10;100.00;101569.63;5050924;28;20030;-70
2022/09/12 04:57:44;;;;;;;;;;;;;;;13.11;100.00;101574.03;5019944;28;20375;-71
2022/09/12 05:00:13;;;;;;;;;;;;;;;13.12;100.00;101567.75;5051036;28;20631;-71
2022/09/12 05:02:41;;;;;;;;;;;;;;;13.14;100.00;101568.59;5053012;28;19929;-71
2022/09/12 05:05:07;;;;;;;;;;;;;;;13.15;100.00;101565.00;5051034;28;19932;-71
2022/09/12 05:07:32;;;;;;;;;;;;;;;13.16;100.00;101562.28;5044711;28;19928;-71
2022/09/12 05:09:58;;;;;;;;;;;;;;;13.18;100.00;101565.72;5050291;28;19940;-71
2022/09/12 05:12:24;;;;;;;;;;;;;;;13.20;100.00;101572.75;5051461;28;20015;-71
2022/09/12 05:14:49;;;;;;;;;;;;;;;13.20;100.00;101570.97;5049940;28;19932;-71
2022/09/12 05:17:14;;;;;;;;;;;;;;;13.22;100.00;101573.53;5044008;28;20027;-71
2022/09/12 05:19:40;;;;;;;;;;;;;;;13.21;100.00;101563.84;5050170;28;20295;-71
2022/09/12 05:22:05;;;;;;;;;;;;;;;13.22;100.00;101560.25;5052372;28;19936;-71
2022/09/12 05:24:31;;;;;;;;;;;;;;;13.22;100.00;101562.91;5056345;28;19975;-71
2022/09/12 05:26:56;;;;;;;;;;;;;;;13.24;100.00;101563.72;5055115;28;19924;-71
2022/09/12 05:29:23;;;;;;;;;;;;;;;13.25;100.00;101555.66;5059946;28;20399;-71
2022/09/12 05:31:51;;;;;;;;;;;;;;;13.26;100.00;101553.88;5054603;28;19979;-71
2022/09/12 05:34:16;;;;;;;;;;;;;;;13.28;100.00;101555.53;5052158;28;19929;-71
2022/09/12 05:36:41;;;;;;;;;;;;;;;13.30;100.00;101558.13;5051991;28;20349;-71
2022/09/12 05:39:07;;;;;;;;;;;;;;;13.31;100.00;101550.06;5051960;28;20052;-71
2022/09/12 05:41:33;;;;;;;;;;;;;;;13.33;100.00;101552.66;5053215;28;19996;-71
2022/09/12 05:43:59;;;;;;;;;;;;;;;13.36;100.00;101557.84;5054909;28;20407;-71
2022/09/12 05:46:26;;;;;;;;;;;;;;;13.38;100.00;101558.63;5053565;28;20436;-71
2022/09/12 05:48:51;;;;;;;;;;;;;;;13.43;100.00;101559.28;5053877;28;19986;-71
2022/09/12 05:51:19;;;;;;;;;;;;;;;13.46;100.00;101555.66;5053181;28;20340;-71
2022/09/12 05:53:48;;;;;;;;;;;;;;;13.49;100.00;101558.16;5052667;28;19993;-72
2022/09/12 05:56:14;;;;;;;;;;;;;;;13.53;100.00;101548.25;5053508;28;20027;-72
2022/09/12 05:58:41;;;;;;;;;;;;;;;13.56;100.00;101556.94;5052915;28;19984;-71
2022/09/12 06:01:11;;;;;;;;;;;;;;;13.60;100.00;101560.31;5052446;28;20477;-71
2022/09/12 06:03:50;;;;;;;;;;;;;;;13.63;100.00;101561.97;5057448;28;19947;-72
2022/09/12 06:06:17;;;;;;;;;;;;;;;13.66;100.00;101544.06;5053326;28;19939;-71
2022/09/12 06:08:44;;;;;;;;;;;;;;;13.69;100.00;101561.69;5035585;28;20287;-71
2022/09/12 06:11:10;;;;;;;;;;;;;;;13.73;100.00;101551.75;5053487;28;19928;-71
2022/09/12 06:13:36;;;;;;;;;;;;;;;13.75;100.00;101555.19;5053299;28;19925;-71
2022/09/12 06:16:02;;;;;;;;;;;;;;;13.79;100.00;101554.13;5048034;28;20399;-71
2022/09/12 06:18:28;;;;;;;;;;;;;;;13.82;100.00;101551.31;5052796;28;21039;-72
2022/09/12 06:20:53;;;;;;;;;;;;;;;13.84;100.00;101544.13;5056000;28;20055;-71
2022/09/12 06:23:18;;;;;;;;;;;;;;;13.89;100.00;101555.41;5055826;28;19928;-71
2022/09/12 06:25:48;;;;;;;;;;;;;;;13.91;100.00;101548.22;5054429;28;20054;-71
2022/09/12 06:28:13;;;;;;;;;;;;;;;13.96;100.00;101548.00;5055734;28;20406;-72
2022/09/12 06:30:38;;;;;;;;;;;;;;;13.99;100.00;101556.69;5053986;28;20019;-71
2022/09/12 06:33:04;;;;;;;;;;;;;;;14.02;100.00;101544.16;5051474;28;19928;-71
2022/09/12 06:35:29;;;;;;;;;;;;;;;14.05;100.00;101544.88;5050652;28;20180;-72
2022/09/12 06:37:54;;;;;;;;;;;;;;;14.10;100.00;101541.97;5053087;28;19937;-71
2022/09/12 06:40:20;;;;;;;;;;;;;;;14.13;100.00;101545.34;5052388;28;20944;-72
2022/09/12 06:42:45;;;;;;;;;;;;;;;14.17;100.00;101550.53;5054748;28;19932;-70
2022/09/12 06:45:11;;;;;;;;;;;;;;;14.20;100.00;101553.91;5053997;28;19937;-72
2022/09/12 06:47:36;;;;;;;;;;;;;;;14.22;100.00;101552.03;5040895;28;19929;-72
2022/09/12 06:50:01;;;;;;;;;;;;;;;14.26;100.00;101544.75;5054689;28;20029;-72
2022/09/12 06:52:28;;;;;;;;;;;;;;;14.29;100.00;101546.41;5052560;28;19925;-72
2022/09/12 06:54:53;;;;;;;;;;;;;;;14.32;100.00;101543.59;5052481;28;19933;-72
2022/09/12 06:57:18;;;;;;;;;;;;;;;14.37;100.00;101554.84;5052033;28;20458;-72
2022/09/12 06:59:43;;;;;;;;;;;;;;;14.39;100.00;101553.00;5051337;28;20381;-71
2022/09/12 07:02:09;;;;;;;;;;;;;;;14.42;100.00;101555.50;5046782;28;19982;-71
2022/09/12 07:04:35;;;;;;;;;;;;;;;14.45;100.00;101563.34;5054535;28;19952;-72
2022/09/12 07:07:01;;;;;;;;;;;;;;;14.48;100.00;101548.97;5053211;28;19937;-71
2022/09/12 07:09:26;;;;;;;;;;;;;;;14.51;100.00;101547.03;5052201;28;19936;-72
2022/09/12 07:11:51;;;;;;;;;;;;;;;14.56;100.00;101548.59;5054606;28;20055;-70
2022/09/12 07:14:17;;;;;;;;;;;;;;;14.60;100.00;101544.84;5058126;28;20060;-70
2022/09/12 07:16:42;;;;;;;;;;;;;;;14.63;100.00;101540.22;5051375;28;19985;-70
2022/09/12 07:19:08;;;;;;;;;;;;;;;14.68;100.00;101542.66;5051787;28;19979;-71
2022/09/12 07:21:38;;;;;;;;;;;;;;;14.72;100.00;101541.56;5052801;28;19970;-71
2022/09/12 07:24:03;;;;;;;;;;;;;;;14.76;100.00;101542.28;5053741;28;19929;-71
2022/09/12 07:26:29;;;;;;;;;;;;;;;14.80;100.00;101531.38;5052690;28;20379;-71
2022/09/12 07:28:55;;;;;;;;;;;;;;;14.85;100.00;101544.47;5054187;28;19928;-71
2022/09/12 07:31:24;;;;;;;;;;;;;;;14.90;100.00;101536.22;5050669;28;19983;-70
2022/09/12 07:33:49;;;;;;;;;;;;;;;14.95;100.00;101539.50;5049435;28;19924;-71
2022/09/12 07:36:15;;;;;;;;;;;;;;;15.00;100.00;101545.47;5051776;28;19934;-71
2022/09/12 07:38:41;;;;;;;;;;;;;;;15.06;100.00;101544.28;5048499;28;20461;-70
2022/09/12 07:41:33;;;;;;;;;;;;;;;15.14;100.00;101543.88;5049893;28;19925;-70
2022/09/12 07:43:59;;;;;;;;;;;;;;;15.21;100.00;101538.09;5051100;28;20379;-71
2022/09/12 07:46:25;;;;;;;;;;;;;;;15.28;100.00;101535.09;5049800;28;19936;-71
2022/09/12 07:48:51;;;;;;;;;;;;;;;15.37;100.00;101544.41;5033418;28;19924;-72
2022/09/12 07:51:17;;;;;;;;;;;;;;;15.44;100.00;101540.47;5052253;28;20019;-71
2022/09/12 07:53:42;;;;;;;;;;;;;;;15.52;100.00;101543.56;5045551;28;20801;-71
2022/09/12 07:56:09;;;;;;;;;;;;;;;15.58;100.00;101543.22;5050511;28;19932;-71
2022/09/12 07:58:35;;;;;;;;;;;;;;;15.67;100.00;101541.00;5052482;28;19932;-71
2022/09/12 08:01:07;;;;;;;;;;;;;;;15.75;100.00;101541.44;5053151;28;19932;-71
2022/09/12 08:03:36;;;;;;;;;;;;;;;15.83;100.00;101533.84;5051045;28;20441;-71
2022/09/12 08:06:02;;;;;;;;;;;;;;;15.94;100.00;101537.75;5040733;28;19932;-71
2022/09/12 08:08:28;;;;;;;;;;;;;;;16.06;100.00;101533.53;5052324;28;19931;-71
2022/09/12 08:10:57;;;;;;;;;;;;;;;16.20;100.00;101535.38;5050358;28;20461;-71
2022/09/12 08:13:22;;;;;;;;;;;;;;;16.33;100.00;101544.41;5052978;28;20430;-71
2022/09/12 08:15:47;;;;;;;;;;;;;;;16.42;100.00;101538.53;5048747;28;19929;-71
2022/09/12 08:18:13;;;;;;;;;;;;;;;16.51;100.00;101542.44;5051836;28;19933;-71
2022/09/12 08:20:38;;;;;;;;;;;;;;;16.60;100.00;101542.88;5050859;28;19983;-71
2022/09/12 08:23:04;;;;;;;;;;;;;;;16.67;100.00;101542.38;5052617;28;19935;-72
2022/09/12 08:25:29;;;;;;;;;;;;;;;16.77;100.00;101552.53;5051255;28;19939;-71
2022/09/12 08:27:55;;;;;;;;;;;;;;;16.87;100.00;101544.78;5052162;28;19982;-71
2022/09/12 08:30:20;;;;;;;;;;;;;;;16.92;100.00;101546.25;5051868;28;19932;-71
2022/09/12 08:32:46;;;;;;;;;;;;;;;17.03;100.00;101550.09;5051979;28;19939;-72
2022/09/12 08:35:11;;;;;;;;;;;;;;;17.09;100.00;101549.72;5055803;28;20454;-72
2022/09/12 08:37:36;;;;;;;;;;;;;;;17.15;100.00;101540.47;5051661;28;19932;-70
2022/09/12 08:40:05;;;;;;;;;;;;;;;17.17;100.00;101549.25;5049950;28;19932;-71
2022/09/12 08:42:51;;;;;;;;;;;;;;;17.23;100.00;101547.03;5051657;28;20342;-72
2022/09/12 08:45:19;;;;;;;;;;;;;;;17.32;100.00;101544.75;5050767;28;19935;-72
2022/09/12 08:47:44;;;;;;;;;;;;;;;17.38;100.00;101544.38;5050018;28;20084;-72
2022/09/12 08:50:14;;;;;;;;;;;;;;;17.45;100.00;101543.03;5049732;28;20566;-72
2022/09/12 08:52:45;;;;;;;;;;;;;;;17.53;100.00;101539.00;5067229;28;19951;-72
2022/09/12 08:55:32;;;;;;;;;;;;;;;17.58;100.00;101537.72;5052111;28;20267;-72
2022/09/12 08:57:59;;;;;;;;;;;;;;;17.64;100.00;101541.81;5052000;28;19929;-72
2022/09/12 09:00:26;;;;;;;;;;;;;;;17.68;100.00;101538.00;5044162;28;19925;-72
2022/09/12 09:03:01;;;;;;;;;;;;;;;17.73;100.00;101535.88;5044199;28;20027;-72
2022/09/12 09:05:33;;;;;;;;;;;;;;;17.84;100.00;101537.00;5050586;28;20027;-71
2022/09/12 09:07:59;;;;;;;;;;;;;;;17.95;100.00;101533.59;5053092;28;20386;-72
2022/09/12 09:10:40;;;;;;;;;;;;;;;18.03;100.00;101534.81;5050672;28;20457;-71
2022/09/12 09:16:14;;;;;;;;;;;;;;;18.17;100.00;101522.34;5048391;28;19929;-72
2022/09/12 09:18:39;;;;;;;;;;;;;;;18.22;100.00;101512.19;5034006;28;19924;-72
2022/09/12 09:21:08;;;;;;;;;;;;;;;18.25;100.00;101511.97;5049804;28;19947;-70
2022/09/12 09:23:35;;;;;;;;;;;;;;;18.32;100.00;101515.94;5049928;28;19928;-71
2022/09/12 09:26:00;;;;;;;;;;;;;;;18.43;100.00;101511.69;5034645;28;19924;-70
2022/09/12 09:28:36;;;;;;;;;;;;;;;18.52;100.00;101516.41;5055587;28;19947;-70
2022/09/12 09:31:02;;;;;;;;;;;;;;;18.67;100.00;101497.53;5050689;28;20491;-71
2022/09/12 09:33:30;;;;;;;;;;;;;;;18.85;100.00;101496.25;5049152;28;19925;-72
2022/09/12 09:36:15;;;;;;;;;;;;;;;19.00;100.00;101498.81;5048505;28;20037;-71
2022/09/12 09:39:09;;;;;;;;;;;;;;;19.12;100.00;101497.16;5048782;28;20121;-71
2022/09/12 09:41:58;;;;;;;;;;;;;;;19.29;100.00;101498.63;5044723;28;19924;-71
2022/09/12 09:44:24;;;;;;;;;;;;;;;19.44;100.00;101490.41;5047933;28;19931;-71
2022/09/12 09:46:54;;;;;;;;;;;;;;;19.53;100.00;101489.72;5048821;28;19924;-70
2022/09/12 09:49:19;;;;;;;;;;;;;;;19.56;100.00;101484.16;5049606;28;19929;-70
2022/09/12 09:51:44;;;;;;;;;;;;;;;19.61;100.00;101492.69;5048676;28;19928;-71
2022/09/12 09:54:10;;;;;;;;;;;;;;;19.64;100.00;101489.78;5049404;28;20031;-70
2022/09/12 09:56:36;;;;;;;;;;;;;;;19.69;100.00;101489.44;5049472;28;19939;-70
2022/09/12 09:59:07;;;;;;;;;;;;;;;19.74;100.00;101483.72;5048973;28;19938;-70
2022/09/12 10:01:33;;;;;;;;;;;;;;;19.80;100.00;101486.84;5049439;28;19928;-71
2022/09/12 10:03:58;;;;;;;;;;;;;;;19.85;100.00;101473.06;5031796;28;19951;-72
2022/09/12 10:06:25;;;;;;;;;;;;;;;19.89;100.00;101469.13;5033767;28;19928;-71
2022/09/12 10:08:51;;;;;;;;;;;;;;;19.94;100.00;101476.88;5052488;28;19959;-71
2022/09/12 10:11:21;;;;;;;;;;;;;;;19.97;100.00;101473.09;5053267;28;20624;-70
2022/09/12 10:13:52;;;;;;;;;;;;;;;20.02;100.00;101476.31;5048492;28;19932;-70
2022/09/12 10:16:20;;;;;;;;;;;;;;;20.10;100.00;101479.25;5051705;28;19967;-71
2022/09/12 10:18:46;;;;;;;;;;;;;;;20.12;100.00;101474.66;5052689;28;19960;-71
2022/09/12 10:21:12;;;;;;;;;;;;;;;20.16;100.00;101467.22;5051572;28;20074;-71
2022/09/12 10:23:40;;;;;;;;;;;;;;;20.17;99.82;101467.09;5042209;28;19924;-71
2022/09/12 10:26:12;;;;;;;;;;;;;;;20.20;99.86;101461.47;5051525;28;19928;-72
2022/09/12 10:28:39;;;;;;;;;;;;;;;20.23;99.36;101463.06;5050973;28;19969;-71
2022/09/12 10:31:05;;;;;;;;;;;;;;;20.27;99.55;101458.31;5052637;28;20068;-72
2022/09/12 10:33:30;;;;;;;;;;;;;;;20.31;98.50;101457.09;5052981;28;20015;-71
2022/09/12 10:35:56;;;;;;;;;;;;;;;20.35;99.12;101453.19;5053668;28;19931;-71
2022/09/12 10:38:29;;;;;;;;;;;;;;;20.38;99.31;101450.28;5053646;28;20379;-71
2022/09/12 10:41:05;;;;;;;;;;;;;;;20.43;97.01;101440.00;5053779;28;19929;-72
2022/09/12 10:43:36;;;;;;;;;;;;;;;20.47;96.64;101443.31;5053240;28;19933;-71
2022/09/12 10:46:14;;;;;;;;;;;;;;;20.50;97.56;101437.72;5052771;28;19981;-71
2022/09/12 10:48:39;;;;;;;;;;;;;;;20.55;96.25;101431.97;5053134;28;19963;-72
2022/09/12 10:51:11;;;;;;;;;;;;;;;20.61;95.13;101426.94;5038351;28;20386;-71
2022/09/12 10:53:40;;;;;;;;;;;;;;;20.69;94.82;101429.03;5053099;28;19970;-72
2022/09/12 10:56:13;;;;;;;;;;;;;;;20.70;95.05;101429.91;5053207;28;19951;-71
2022/09/12 10:59:11;;;;;;;;;;;;;;;20.74;95.33;101421.44;5037362;28;19939;-71
2022/09/12 11:01:45;;;;;;;;;;;;;;;20.77;93.11;101426.56;5005171;28;19925;-72
2022/09/12 11:04:23;;;;;;;;;;;;;;;20.81;93.06;101429.88;5034201;28;20418;-72
2022/09/12 11:06:52;;;;;;;;;;;;;;;20.83;90.76;101435.13;5053854;28;19935;-71
2022/09/12 11:09:17;;;;;;;;;;;;;;;20.83;90.21;101436.00;5052722;28;19924;-72
2022/09/12 11:11:55;;;;;;;;;;;;;;;20.87;91.51;101442.88;5052530;28;19928;-71
2022/09/12 11:14:21;;;;;;;;;;;;;;;20.90;90.04;101436.38;5050722;28;19978;-71
2022/09/12 11:16:56;;;;;;;;;;;;;;;20.92;88.17;101439.81;5049855;28;20604;-75
2022/09/12 11:19:27;;;;;;;;;;;;;;;20.92;88.14;101439.81;5047760;28;19938;-74
2022/09/12 11:21:53;;;;;;;;;;;;;;;20.94;88.22;101437.88;5055476;28;20624;-73
2022/09/12 11:24:30;;;;;;;;;;;;;;;21.01;87.71;101435.53;5053188;28;19929;-73
2022/09/12 11:26:59;;;;;;;;;;;;;;;21.03;86.60;101429.03;5048795;28;19928;-74
2022/09/12 11:29:34;;;;;;;;;;;;;;;21.10;87.96;101425.84;5048289;28;20047;-73
2022/09/12 11:32:18;;;;;;;;;;;;;;;21.12;88.44;101419.38;5050238;28;19932;-73
2022/09/12 11:35:01;;;;;;;;;;;;;;;21.18;89.12;101415.31;5050977;28;20047;-74
2022/09/12 11:37:39;;;;;;;;;;;;;;;21.23;88.13;101412.22;5053109;28;19928;-73
2022/09/12 11:40:24;;;;;;;;;;;;;;;21.26;87.62;101414.69;5049258;28;20512;-74
2022/09/12 11:42:51;;;;;;;;;;;;;;;21.34;87.03;101408.69;5046478;28;19929;-74
2022/09/12 11:45:21;;;;;;;;;;;;;;;21.40;87.30;101413.53;5025150;28;19928;-74
2022/09/12 11:47:54;;;;;;;;;;;;;;;21.46;87.09;101407.63;5026565;28;19931;-72
2022/09/12 11:50:30;;;;;;;;;;;;;;;21.56;85.94;101400.50;5033578;28;20428;-72
2022/09/12 11:52:57;;;;;;;;;;;;;;;21.65;85.15;101398.03;5052937;28;20015;-71
2022/09/12 11:55:24;;;;;;;;;;;;;;;21.68;85.01;101395.09;5051974;28;19975;-71
2022/09/12 11:57:57;;;;;;;;;;;;;;;21.70;84.21;101393.16;5050050;28;19988;-71
2022/09/12 12:00:46;;;;;;;;;;;;;;;21.74;79.68;101400.00;5048170;28;19928;-76
2022/09/12 12:03:14;;;;;;;;;;;;;;;21.82;83.09;101399.31;5051099;28;19932;-74
2022/09/12 12:05:48;;;;;;;;;;;;;;;21.89;82.71;101399.66;5050856;28;19933;-74
2022/09/12 12:08:13;;;;;;;;;;;;;;;21.94;82.76;101400.09;5051193;28;19927;-79
2022/09/12 12:10:40;;;;;;;;;;;;;;;21.94;79.23;101405.50;5030905;28;19924;-80
2022/09/12 12:13:06;;;;;;;;;;;;;;;21.95;80.31;101407.25;5032900;28;21407;-81
2022/09/12 12:15:33;;;;;;;;;;;;;;;21.89;74.09;101394.28;5035520;28;19931;-83
2022/09/12 12:17:59;;;;;;;;;;;;;;;21.87;76.34;101398.94;5049583;28;19924;-81
2022/09/12 12:20:26;;;;;;;;;;;;;;;21.89;78.94;101394.28;5052520;28;20051;-81
2022/09/12 12:22:52;;;;;;;;;;;;;;;21.90;79.43;101394.13;5037148;28;20338;-81
2022/09/12 12:25:17;;;;;;;;;;;;;;;21.92;79.62;101389.47;5053701;28;20011;-81
2022/09/12 12:27:42;;;;;;;;;;;;;;;21.98;82.12;101390.78;5067928;28;19932;-80
2022/09/12 12:30:23;;;;;;;;;;;;;;;22.02;80.79;101392.25;5054455;28;19983;-81
2022/09/12 12:32:49;;;;;;;;;;;;;;;22.06;78.36;101384.75;5052163;28;19931;-80
2022/09/12 12:35:50;;;;;;;;;;;;;;;22.10;79.73;101386.16;5067597;28;19925;-82
2022/09/12 12:38:34;;;;;;;;;;;;;;;22.14;79.45;101381.38;5011988;28;20387;-81
2022/09/12 12:41:18;;;;;;;;;;;;;;;22.17;77.67;101389.22;5046392;28;19932;-82